Terminal Aerodrome Forecast
Issued by NWS

Home | Current Version | Previous Version | Text Only | Print | Product List | Glossary On
Versions: 1 2 3 4 5 6 7 8 9 10 11 12 13 14 15 16 17
000
FTUS43 KGRB 010500
TAFMTW
TAF
KMTW 010520Z 0106/0206 04015G24KT 6SM -SN OVC018
      TEMPO 0109/0113 1 1/2SM -SN
     FM011300 03016G27KT 5SM -SHSN OVC025
      TEMPO 0113/0117 2SM -SN
     FM012100 03017G28KT P6SM -SHSN SCT030 BKN060
     FM020100 02015G23KT P6SM SCT035=

USA.gov is the U.S. government's official web portal to all federal, state and local government web resources and services.